createdAt,value
2018-04-27T00:00:44.010Z,4.30
2018-04-27T00:03:12.052Z,4.57
2018-04-27T00:05:40.496Z,5.03
2018-04-27T00:08:08.018Z,6.73
2018-04-27T00:10:36.370Z,6.53
2018-04-27T00:13:03.873Z,5.67
2018-04-27T00:15:31.398Z,5.10
2018-04-27T00:17:58.891Z,7.37
2018-04-27T00:20:26.392Z,5.43
2018-04-27T00:22:54.128Z,5.83
2018-04-27T00:25:21.635Z,6.77
2018-04-27T00:27:49.113Z,5.23
2018-04-27T00:30:17.391Z,5.03
2018-04-27T00:32:45.681Z,5.07
2018-04-27T00:35:13.861Z,7.53
2018-04-27T00:37:41.356Z,5.93
2018-04-27T00:40:08.874Z,4.07
2018-04-27T00:42:36.669Z,4.90
2018-04-27T00:45:04.165Z,5.27
2018-04-27T00:47:31.750Z,6.30
2018-04-27T00:50:00.024Z,5.10
2018-04-27T00:52:27.559Z,5.47
2018-04-27T00:54:55.561Z,5.37
2018-04-27T00:57:23.054Z,5.50
2018-04-27T00:59:50.571Z,5.70
2018-04-27T01:02:18.282Z,5.20
2018-04-27T01:04:45.826Z,6.57
2018-04-27T01:07:13.312Z,5.73
2018-04-27T01:09:41.676Z,5.30
2018-04-27T01:12:09.174Z,5.07
2018-04-27T01:14:36.659Z,7.10
2018-04-27T01:17:04.145Z,6.70
2018-04-27T01:19:31.680Z,6.47
2018-04-27T01:21:59.288Z,6.10
2018-04-27T01:24:26.775Z,7.07
2018-04-27T01:26:55.047Z,6.33
2018-04-27T01:29:22.791Z,6.20
2018-04-27T01:31:50.343Z,8.30
2018-04-27T01:34:17.988Z,6.70
2018-04-27T01:36:45.633Z,6.23
2018-04-27T01:39:13.184Z,7.00
2018-04-27T01:41:40.669Z,7.77
2018-04-27T01:44:08.185Z,6.70
2018-04-27T01:46:35.736Z,7.50
2018-04-27T01:49:04.438Z,8.20
2018-04-27T01:51:32.692Z,8.27
2018-04-27T01:54:00.167Z,8.70
2018-04-27T01:56:29.019Z,7.63
2018-04-27T01:58:57.361Z,7.77
2018-04-27T02:01:24.858Z,9.20
2018-04-27T02:03:52.354Z,7.47
2018-04-27T02:06:20.641Z,9.07
2018-04-27T02:08:48.206Z,9.50
2018-04-27T02:11:15.708Z,11.53
2018-04-27T02:13:43.288Z,9.23
2018-04-27T02:16:10.835Z,9.90
2018-04-27T02:18:38.428Z,10.53
2018-04-27T02:21:06.697Z,9.07
2018-04-27T02:23:34.963Z,8.93
2018-04-27T02:26:02.505Z,10.33
2018-04-27T02:28:29.991Z,11.30
2018-04-27T02:30:57.624Z,11.43
2018-04-27T02:33:25.172Z,9.53
2018-04-27T02:35:52.709Z,13.03
2018-04-27T02:38:20.279Z,9.83
2018-04-27T02:40:47.785Z,9.30
2018-04-27T02:43:15.403Z,12.93
2018-04-27T02:45:43.253Z,11.23
2018-04-27T02:48:10.780Z,9.27
2018-04-27T02:50:38.611Z,10.40
2018-04-27T02:53:06.136Z,10.93
2018-04-27T02:55:33.647Z,11.27
2018-04-27T02:58:01.795Z,12.53
2018-04-27T03:00:29.303Z,10.07
2018-04-27T03:02:57.573Z,9.80
2018-04-27T03:05:25.184Z,9.40
2018-04-27T03:07:52.695Z,10.47
2018-04-27T03:10:20.969Z,13.30
2018-04-27T03:12:49.249Z,11.83
2018-04-27T03:15:16.994Z,13.27
2018-04-27T03:17:44.506Z,9.33
2018-04-27T03:20:12.077Z,11.43
2018-04-27T03:22:39.853Z,9.00
2018-04-27T03:25:07.371Z,10.57
2018-04-27T03:27:34.869Z,9.93
2018-04-27T03:30:02.367Z,11.00
2018-04-27T03:32:30.046Z,13.27
2018-04-27T03:34:57.658Z,10.73
2018-04-27T03:37:25.177Z,9.23
2018-04-27T03:39:52.674Z,10.90
2018-04-27T03:42:20.167Z,10.30
2018-04-27T03:44:47.761Z,11.13
2018-04-27T03:47:15.318Z,10.70
2018-04-27T03:49:42.823Z,12.73
2018-04-27T03:52:10.369Z,12.07
2018-04-27T03:54:37.863Z,13.00
2018-04-27T03:57:05.356Z,12.37
2018-04-27T03:59:44.659Z,10.73
2018-04-27T04:02:24.865Z,9.97
2018-04-27T04:05:04.267Z,14.20
2018-04-27T04:07:31.887Z,8.80
2018-04-27T04:09:59.679Z,10.63
2018-04-27T04:12:28.009Z,8.83
2018-04-27T04:14:55.577Z,9.90
2018-04-27T04:17:23.077Z,9.43
2018-04-27T04:19:50.703Z,11.03
2018-04-27T04:22:18.444Z,13.33
2018-04-27T04:24:45.987Z,8.87
2018-04-27T04:27:13.979Z,10.20
2018-04-27T04:29:41.485Z,8.00
2018-04-27T04:32:09.165Z,7.83
2018-04-27T04:34:36.825Z,8.77
2018-04-27T04:37:04.424Z,7.40
2018-04-27T04:39:32.039Z,7.87
2018-04-27T04:42:00.645Z,7.27
2018-04-27T04:44:29.045Z,7.00
2018-04-27T04:46:56.567Z,7.30
2018-04-27T04:49:24.992Z,7.13
2018-04-27T04:51:52.649Z,6.93
2018-04-27T04:54:20.149Z,7.60
2018-04-27T04:56:47.877Z,8.87
2018-04-27T04:59:15.533Z,7.43
2018-04-27T05:01:43.549Z,8.90
2018-04-27T05:04:11.087Z,10.07
2018-04-27T05:06:38.624Z,7.93
2018-04-27T05:09:06.147Z,9.73
2018-04-27T05:11:34.478Z,7.80
2018-04-27T05:14:01.964Z,8.13
2018-04-27T05:16:29.562Z,8.47
2018-04-27T05:18:58.473Z,8.47
2018-04-27T05:21:26.582Z,7.80
2018-04-27T05:23:54.217Z,7.37
2018-04-27T05:26:21.734Z,7.70
2018-04-27T05:28:49.287Z,8.93
2018-04-27T05:31:24.040Z,9.10
2018-04-27T05:33:51.658Z,8.67
2018-04-27T05:36:19.149Z,11.10
2018-04-27T05:38:46.651Z,9.30
2018-04-27T05:41:14.169Z,8.80
2018-04-27T05:43:41.687Z,8.80
2018-04-27T05:46:10.019Z,8.47
2018-04-27T05:48:37.595Z,12.47
2018-04-27T05:51:05.142Z,8.37
2018-04-27T05:53:32.739Z,9.67
2018-04-27T05:56:00.256Z,9.20
2018-04-27T05:58:27.789Z,9.63
2018-04-27T06:00:56.379Z,9.03
2018-04-27T06:03:23.983Z,9.00
2018-04-27T06:05:51.511Z,10.33
2018-04-27T06:08:19.127Z,9.33
2018-04-27T06:10:46.618Z,9.37
2018-04-27T06:13:15.234Z,9.00
2018-04-27T06:15:43.502Z,9.57
2018-04-27T06:18:11.024Z,9.07
2018-04-27T06:20:38.813Z,8.93
2018-04-27T06:23:07.108Z,9.60
2018-04-27T06:25:34.646Z,10.70
2018-04-27T06:28:02.637Z,12.80
2018-04-27T06:30:30.349Z,8.73
2018-04-27T06:32:58.047Z,8.57
2018-04-27T06:35:26.313Z,9.48
2018-04-27T06:37:53.888Z,9.40
2018-04-27T06:40:21.581Z,9.48
2018-04-27T06:42:49.088Z,10.57
2018-04-27T06:45:17.419Z,9.27
2018-04-27T06:47:44.969Z,10.77
2018-04-27T06:50:12.473Z,9.40
2018-04-27T06:52:40.700Z,11.15
2018-04-27T06:55:08.329Z,9.25
2018-04-27T06:57:35.896Z,11.00
2018-04-27T07:00:04.175Z,10.07
2018-04-27T07:02:32.582Z,11.18
2018-04-27T07:05:00.358Z,11.00
2018-04-27T07:07:27.908Z,10.20
2018-04-27T07:09:55.434Z,11.23
2018-04-27T07:12:23.866Z,16.55
2018-04-27T07:14:51.582Z,13.43
2018-04-27T07:17:19.960Z,9.63
2018-04-27T07:19:47.467Z,11.27
2018-04-27T07:22:14.982Z,10.88
2018-04-27T07:24:43.282Z,8.82
2018-04-27T07:27:10.783Z,9.30
2018-04-27T07:29:38.300Z,11.48
2018-04-27T07:32:05.803Z,9.93
2018-04-27T07:34:33.328Z,10.65
2018-04-27T07:37:00.877Z,9.10
2018-04-27T07:39:28.746Z,10.80
2018-04-27T07:41:56.767Z,8.90
2018-04-27T07:44:24.458Z,8.60
2018-04-27T07:46:52.146Z,9.02
2018-04-27T07:49:19.701Z,8.25
2018-04-27T07:51:47.271Z,7.97
2018-04-27T07:54:14.781Z,8.90
2018-04-27T07:56:42.760Z,6.80
2018-04-27T07:59:11.252Z,8.05
2018-04-27T08:01:38.768Z,7.55
2018-04-27T08:04:06.329Z,7.57
2018-04-27T08:06:34.241Z,6.65
2018-04-27T08:09:01.829Z,8.10
2018-04-27T08:11:29.353Z,7.90
2018-04-27T08:13:56.995Z,8.38
2018-04-27T08:16:24.511Z,8.35
2018-04-27T08:18:52.052Z,8.13
2018-04-27T08:21:20.679Z,8.00
2018-04-27T08:23:48.368Z,8.73
2018-04-27T08:26:18.582Z,8.30
2018-04-27T08:28:46.130Z,7.37
2018-04-27T08:31:13.642Z,10.07
2018-04-27T08:33:41.427Z,7.30
2018-04-27T08:36:08.987Z,8.77
2018-04-27T08:38:36.580Z,11.13
2018-04-27T08:41:04.520Z,8.37
2018-04-27T08:43:32.057Z,9.40
2018-04-27T08:45:59.865Z,10.63
2018-04-27T08:48:27.430Z,9.33
2018-04-27T08:50:56.455Z,9.60
2018-04-27T08:53:23.989Z,9.83
2018-04-27T08:55:52.006Z,11.23
2018-04-27T08:58:19.527Z,7.77
2018-04-27T09:00:47.826Z,8.17
2018-04-27T09:03:16.169Z,8.20
2018-04-27T09:05:43.877Z,10.40
2018-04-27T09:08:12.362Z,10.30
2018-04-27T09:10:39.922Z,11.23
2018-04-27T09:13:07.650Z,9.13
2018-04-27T09:15:35.270Z,7.73
2018-04-27T09:18:03.192Z,9.67
2018-04-27T09:20:30.916Z,11.00
2018-04-27T09:22:58.432Z,9.40
2018-04-27T09:25:26.731Z,9.53
2018-04-27T09:27:54.399Z,7.77
2018-04-27T09:30:22.098Z,8.20
2018-04-27T09:32:50.410Z,11.67
2018-04-27T09:35:18.006Z,8.07
2018-04-27T09:37:45.543Z,9.20
2018-04-27T09:40:13.060Z,9.00
2018-04-27T09:42:40.735Z,6.60
2018-04-27T09:45:08.440Z,7.40
2018-04-27T09:47:35.953Z,8.03
2018-04-27T09:50:03.673Z,7.43
2018-04-27T09:52:31.290Z,6.03
2018-04-27T09:54:58.845Z,7.30
2018-04-27T09:57:27.907Z,10.40
2018-04-27T09:59:55.644Z,9.27
2018-04-27T10:02:23.149Z,8.37
2018-04-27T10:04:50.658Z,7.37
2018-04-27T10:07:18.489Z,7.27
2018-04-27T10:09:46.124Z,7.60
2018-04-27T10:12:13.751Z,8.37
2018-04-27T10:14:41.251Z,8.07
2018-04-27T10:17:08.953Z,8.43
2018-04-27T10:19:40.745Z,6.33
2018-04-27T10:22:08.257Z,6.37
2018-04-27T10:24:35.798Z,5.87
2018-04-27T10:27:03.416Z,9.30
2018-04-27T10:29:31.230Z,9.10
2018-04-27T10:31:59.338Z,8.60
2018-04-27T10:34:27.204Z,5.30
2018-04-27T10:36:54.701Z,7.93
2018-04-27T10:39:22.578Z,6.07
2018-04-27T10:41:50.134Z,6.77
2018-04-27T10:44:17.675Z,5.77
2018-04-27T10:46:45.819Z,6.37
2018-04-27T10:49:13.340Z,4.83
2018-04-27T10:51:42.360Z,8.67
2018-04-27T10:54:10.692Z,5.87
2018-04-27T10:56:38.251Z,6.00
2018-04-27T10:59:05.848Z,6.30
2018-04-27T11:01:33.400Z,5.47
2018-04-27T11:04:00.893Z,5.27
2018-04-27T11:06:28.427Z,6.33
2018-04-27T11:08:56.004Z,6.33
2018-04-27T11:11:24.031Z,4.93
2018-04-27T11:13:52.008Z,7.07
2018-04-27T11:16:19.597Z,5.70
2018-04-27T11:18:47.171Z,5.93
2018-04-27T11:21:14.844Z,5.80
2018-04-27T11:23:42.354Z,6.70
2018-04-27T11:26:10.130Z,6.47
2018-04-27T11:28:37.702Z,8.30
2018-04-27T11:31:05.235Z,6.43
2018-04-27T11:33:32.743Z,5.83
2018-04-27T11:36:00.262Z,7.30
2018-04-27T11:38:27.757Z,6.03
2018-04-27T11:40:55.457Z,7.50
2018-04-27T11:43:22.945Z,6.37
2018-04-27T11:45:50.669Z,5.77
2018-04-27T11:48:18.213Z,5.27
2018-04-27T11:50:46.485Z,6.87
2018-04-27T11:53:13.991Z,7.77
2018-04-27T11:55:41.705Z,6.20
2018-04-27T11:58:09.252Z,6.00
2018-04-27T12:00:36.823Z,5.70
2018-04-27T12:03:05.124Z,6.03
2018-04-27T12:05:32.791Z,4.30
2018-04-27T12:08:00.388Z,6.97
2018-04-27T12:10:27.891Z,7.77
2018-04-27T12:12:55.782Z,5.17
2018-04-27T12:15:23.311Z,6.97
2018-04-27T12:17:50.834Z,5.23
2018-04-27T12:20:19.169Z,6.20
2018-04-27T12:22:46.661Z,8.57
2018-04-27T12:25:14.916Z,4.93
2018-04-27T12:27:42.459Z,6.03
2018-04-27T12:30:10.167Z,5.30
2018-04-27T12:32:37.900Z,4.70
2018-04-27T12:35:05.426Z,4.90
2018-04-27T12:37:33.750Z,5.63
2018-04-27T12:40:01.323Z,5.47
2018-04-27T12:42:28.875Z,7.17
2018-04-27T12:44:56.482Z,5.00
2018-04-27T12:47:23.960Z,8.13
2018-04-27T12:49:51.643Z,4.20
2018-04-27T12:52:19.167Z,7.13
2018-04-27T12:54:46.762Z,4.63
2018-04-27T12:57:14.533Z,10.43
2018-04-27T12:59:42.086Z,7.77
2018-04-27T13:02:09.846Z,5.43
2018-04-27T13:04:37.383Z,4.80
2018-04-27T13:07:04.896Z,6.80
2018-04-27T13:09:32.428Z,4.83
2018-04-27T13:12:00.025Z,6.43
2018-04-27T13:14:27.545Z,7.90
2018-04-27T13:16:55.260Z,6.37
2018-04-27T13:19:22.781Z,5.67
2018-04-27T13:21:50.326Z,5.73
2018-04-27T13:24:17.903Z,5.97
2018-04-27T13:26:45.581Z,6.20
2018-04-27T13:29:14.809Z,6.00
2018-04-27T13:31:42.372Z,7.47
2018-04-27T13:34:09.910Z,6.20
2018-04-27T13:36:37.466Z,5.43
2018-04-27T13:39:05.662Z,5.17
2018-04-27T13:41:36.073Z,5.57
2018-04-27T13:44:04.158Z,5.33
2018-04-27T13:46:31.674Z,8.33
2018-04-27T13:48:59.197Z,5.80
2018-04-27T13:51:27.081Z,9.40
2018-04-27T13:53:54.884Z,5.67
2018-04-27T13:56:23.039Z,4.90
2018-04-27T13:58:50.589Z,7.07
2018-04-27T14:01:18.356Z,5.23
2018-04-27T14:03:46.552Z,6.80
2018-04-27T14:06:14.084Z,6.67
2018-04-27T14:08:42.380Z,6.00
2018-04-27T14:11:10.202Z,7.13
2018-04-27T14:13:37.989Z,4.77
2018-04-27T14:16:05.558Z,5.53
2018-04-27T14:18:33.051Z,4.57
2018-04-27T14:21:00.567Z,6.63
2018-04-27T14:23:28.355Z,5.03
2018-04-27T14:25:55.903Z,6.20
2018-04-27T14:28:24.018Z,5.30
2018-04-27T14:30:51.641Z,4.00
2018-04-27T14:33:19.173Z,5.67
2018-04-27T14:35:47.594Z,4.13
2018-04-27T14:38:15.930Z,5.83
2018-04-27T14:40:43.489Z,5.67
2018-04-27T14:43:11.219Z,4.63
2018-04-27T14:45:38.741Z,7.60
2018-04-27T14:48:06.342Z,4.10
2018-04-27T14:50:33.860Z,5.43
2018-04-27T14:53:01.376Z,6.53
2018-04-27T14:55:29.656Z,6.07
2018-04-27T14:57:58.202Z,7.20
2018-04-27T15:00:26.681Z,5.60
2018-04-27T15:02:54.240Z,10.50
2018-04-27T15:05:21.771Z,5.17
2018-04-27T15:07:49.316Z,6.47
2018-04-27T15:10:17.320Z,4.87
2018-04-27T15:12:44.833Z,5.07
2018-04-27T15:15:12.403Z,6.87
2018-04-27T15:17:40.111Z,5.87
2018-04-27T15:20:07.947Z,5.10
2018-04-27T15:22:35.821Z,6.37
2018-04-27T15:25:03.371Z,5.60
2018-04-27T15:27:32.071Z,6.37
2018-04-27T15:29:59.680Z,7.37
2018-04-27T15:32:27.253Z,6.67
2018-04-27T15:34:54.855Z,5.33
2018-04-27T15:37:23.249Z,4.43
2018-04-27T15:39:50.905Z,4.70
2018-04-27T15:42:18.488Z,8.27
2018-04-27T15:44:46.052Z,4.70
2018-04-27T15:47:13.630Z,5.17
2018-04-27T15:49:42.105Z,4.47
2018-04-27T15:52:09.743Z,6.30
2018-04-27T15:54:37.332Z,7.30
2018-04-27T15:57:04.883Z,5.83
2018-04-27T15:59:33.893Z,5.63
2018-04-27T16:02:02.356Z,6.33
2018-04-27T16:04:30.012Z,5.40
2018-04-27T16:06:57.531Z,5.30
2018-04-27T16:09:25.374Z,4.27
2018-04-27T16:11:52.894Z,6.80
2018-04-27T16:14:20.409Z,7.80
2018-04-27T16:16:48.284Z,4.53
2018-04-27T16:19:16.259Z,5.40
2018-04-27T16:21:43.992Z,5.40
2018-04-27T16:24:12.599Z,7.40
2018-04-27T16:26:40.960Z,5.57
2018-04-27T16:29:08.506Z,5.27
2018-04-27T16:31:36.861Z,4.57
2018-04-27T16:34:04.929Z,4.00
2018-04-27T16:36:32.493Z,3.63
2018-04-27T16:39:00.755Z,5.17
2018-04-27T16:41:28.486Z,4.47
2018-04-27T16:43:56.028Z,6.73
2018-04-27T16:46:23.593Z,4.40
2018-04-27T16:48:51.910Z,3.70
2018-04-27T16:51:19.488Z,3.17
2018-04-27T16:53:47.036Z,5.07
2018-04-27T16:56:14.606Z,3.37
2018-04-27T16:58:42.217Z,4.37
2018-04-27T17:01:09.732Z,5.07
2018-04-27T17:03:37.502Z,4.07
2018-04-27T17:06:06.177Z,4.67
2018-04-27T17:08:37.303Z,3.47
2018-04-27T17:11:04.876Z,3.33
2018-04-27T17:13:32.461Z,5.37
2018-04-27T17:16:00.071Z,5.03
2018-04-27T17:18:27.910Z,3.80
2018-04-27T17:20:55.501Z,4.70
2018-04-27T17:23:23.054Z,4.73
2018-04-27T17:25:50.675Z,4.77
2018-04-27T17:28:18.225Z,3.60
2018-04-27T17:30:46.022Z,3.30
2018-04-27T17:33:14.332Z,4.20
2018-04-27T17:35:42.250Z,4.50
2018-04-27T17:38:10.777Z,4.73
2018-04-27T17:40:38.328Z,5.27
2018-04-27T17:43:05.942Z,4.13
2018-04-27T17:45:33.664Z,4.53
2018-04-27T17:48:01.296Z,3.10
2018-04-27T17:50:29.015Z,6.33
2018-04-27T17:52:57.547Z,4.97
2018-04-27T17:55:26.024Z,7.27
2018-04-27T17:57:53.676Z,5.50
2018-04-27T18:00:22.094Z,5.67
2018-04-27T18:02:49.775Z,4.40
2018-04-27T18:05:17.800Z,4.63
2018-04-27T18:07:46.082Z,6.07
2018-04-27T18:10:13.782Z,3.73
2018-04-27T18:12:41.830Z,4.17
2018-04-27T18:15:09.396Z,7.23
2018-04-27T18:17:37.013Z,9.77
2018-04-27T18:20:04.486Z,6.00
2018-04-27T18:22:32.031Z,6.03
2018-04-27T18:24:59.560Z,6.33
2018-04-27T18:27:27.237Z,4.17
2018-04-27T18:29:54.763Z,5.93
2018-04-27T18:32:22.549Z,4.57
2018-04-27T18:34:50.522Z,7.30
2018-04-27T18:37:18.095Z,6.67
2018-04-27T18:39:45.777Z,6.83
2018-04-27T18:42:14.383Z,6.73
2018-04-27T18:44:41.944Z,4.00
2018-04-27T18:47:09.635Z,6.37
2018-04-27T18:49:37.188Z,6.87
2018-04-27T18:52:04.726Z,6.43
2018-04-27T18:54:32.263Z,6.57
2018-04-27T18:56:59.947Z,11.00
2018-04-27T18:59:27.500Z,10.47
2018-04-27T19:01:55.125Z,8.03
2018-04-27T19:04:22.675Z,10.90
2018-04-27T19:06:50.491Z,6.67
2018-04-27T19:09:18.259Z,11.03
2018-04-27T19:11:45.978Z,8.83
2018-04-27T19:14:13.596Z,6.63
2018-04-27T19:16:41.113Z,7.57
2018-04-27T19:19:08.643Z,8.90
2018-04-27T19:21:36.363Z,9.13
2018-04-27T19:24:04.675Z,5.00
2018-04-27T19:26:33.012Z,7.80
2018-04-27T19:29:01.388Z,7.67
2018-04-27T19:31:28.968Z,6.40
2018-04-27T19:33:56.542Z,6.80
2018-04-27T19:36:24.119Z,7.40
2018-04-27T19:38:52.674Z,9.70
2018-04-27T19:41:20.549Z,5.20
2018-04-27T19:43:48.091Z,8.53
2018-04-27T19:46:16.242Z,6.20
2018-04-27T19:48:45.260Z,5.90
2018-04-27T19:51:12.841Z,5.90
2018-04-27T19:53:40.548Z,6.70
2018-04-27T19:56:08.921Z,5.90
2018-04-27T19:58:36.476Z,7.03
2018-04-27T20:01:04.009Z,7.70
2018-04-27T20:03:31.683Z,8.67
2018-04-27T20:05:59.313Z,7.67
2018-04-27T20:08:27.441Z,7.30
2018-04-27T20:10:55.142Z,9.43
2018-04-27T20:13:22.601Z,7.40
2018-04-27T20:15:52.001Z,10.77
2018-04-27T20:18:20.626Z,7.80
2018-04-27T20:20:49.109Z,8.07
2018-04-27T20:23:17.879Z,7.60
2018-04-27T20:25:45.429Z,6.47
2018-04-27T20:28:12.950Z,5.93
2018-04-27T20:30:40.489Z,6.43
2018-04-27T20:33:10.833Z,6.27
2018-04-27T20:35:38.368Z,6.70
2018-04-27T20:38:16.085Z,6.20
2018-04-27T20:40:44.372Z,8.17
2018-04-27T20:43:12.241Z,8.17
2018-04-27T20:45:40.880Z,8.47
2018-04-27T20:48:17.123Z,8.87
2018-04-27T20:50:56.155Z,7.90
2018-04-27T20:53:23.705Z,8.00
2018-04-27T20:55:52.052Z,6.20
2018-04-27T20:58:19.645Z,7.33
2018-04-27T21:00:47.220Z,10.93
2018-04-27T21:03:14.775Z,11.73
2018-04-27T21:05:42.285Z,6.17
2018-04-27T21:08:09.884Z,6.60
2018-04-27T21:10:37.404Z,6.77
2018-04-27T21:13:04.966Z,7.57
2018-04-27T21:15:34.400Z,8.80
2018-04-27T21:18:05.576Z,9.00
2018-04-27T21:20:33.144Z,8.43
2018-04-27T21:23:00.702Z,6.37
2018-04-27T21:25:29.507Z,6.33
2018-04-27T21:27:57.592Z,8.60
2018-04-27T21:30:25.162Z,7.97
2018-04-27T21:35:52.515Z,11.87
2018-04-27T21:38:39.420Z,9.17
2018-04-27T21:44:04.972Z,7.73
2018-04-27T21:46:32.630Z,8.33
2018-04-27T21:49:06.750Z,8.03
2018-04-27T21:51:34.317Z,7.47
2018-04-27T21:54:11.581Z,6.30
2018-04-27T21:56:40.105Z,8.03
2018-04-27T21:59:08.425Z,7.43
2018-04-27T22:01:35.978Z,9.80
2018-04-27T22:04:04.431Z,9.30
2018-04-27T22:06:32.802Z,7.20
2018-04-27T22:09:06.990Z,6.70
2018-04-27T22:11:46.126Z,9.17
2018-04-27T22:14:15.090Z,6.10
2018-04-27T22:16:59.113Z,6.93
2018-04-27T22:19:26.625Z,5.60
2018-04-27T22:21:54.137Z,5.50
2018-04-27T22:24:26.218Z,7.03
2018-04-27T22:26:57.207Z,7.83
2018-04-27T22:29:30.663Z,5.87
2018-04-27T22:32:00.011Z,8.27
2018-04-27T22:34:30.951Z,5.57
2018-04-27T22:36:59.251Z,7.53
2018-04-27T22:39:47.513Z,7.53
2018-04-27T22:42:16.693Z,6.30
2018-04-27T22:44:54.298Z,8.00
2018-04-27T22:47:28.341Z,7.77
2018-04-27T22:49:55.847Z,10.90
2018-04-27T22:52:23.363Z,8.77
2018-04-27T22:54:51.771Z,5.87
2018-04-27T23:00:15.363Z,7.60
2018-04-27T23:02:43.639Z,6.23
2018-04-27T23:05:24.875Z,8.47
2018-04-27T23:07:52.408Z,7.80
2018-04-27T23:10:20.641Z,10.10
2018-04-27T23:12:57.796Z,8.07
2018-04-27T23:15:25.354Z,9.10
2018-04-27T23:17:52.876Z,7.07
2018-04-27T23:20:23.894Z,6.97
2018-04-27T23:23:03.076Z,8.07
2018-04-27T23:25:38.021Z,6.57
2018-04-27T23:28:05.625Z,7.40
2018-04-27T23:30:37.418Z,12.17
2018-04-27T23:33:05.719Z,9.47
2018-04-27T23:35:33.244Z,7.30
2018-04-27T23:38:02.850Z,8.70
2018-04-27T23:40:30.448Z,9.77
2018-04-27T23:42:57.951Z,9.53
2018-04-27T23:45:26.421Z,7.17
2018-04-27T23:47:57.633Z,10.53
2018-04-27T23:50:25.161Z,7.70
2018-04-27T23:52:52.669Z,9.93
2018-04-27T23:55:21.219Z,6.60
2018-04-27T23:57:48.825Z,7.83
